Time;durP1;ratioP1;P1;durP2;ratioP2;P2;SDS_P1;SDS_P2;PMS_P1;PMS_P2;Temp;Humidity;BMP_temperature;BMP_pressure;BME280_temperature;BME280_humidity;BME280_pressure;Samples;Min_cycle;Max_cycle;Signal;HPM_P1;HPM_P2
2023/08/30 00:01:12;;;;;;;4.05;2.35;;;;;;;;;;5109828;28;20050;-69
2023/08/30 00:03:40;;;;;;;4.78;2.30;;;;;;;;;;5111449;28;20043;-70
2023/08/30 00:06:08;;;;;;;3.97;2.25;;;;;;;;;;5111501;28;20051;-70
2023/08/30 00:08:36;;;;;;;5.38;2.30;;;;;;;;;;5093549;28;20081;-70
2023/08/30 00:11:04;;;;;;;6.47;2.10;;;;;;;;;;5110829;28;20051;-69
2023/08/30 00:13:32;;;;;;;6.78;2.33;;;;;;;;;;5111362;28;20461;-70
2023/08/30 00:15:59;;;;;;;5.50;2.30;;;;;;;;;;5110618;28;20073;-70
2023/08/30 00:18:27;;;;;;;4.13;2.25;;;;;;;;;;5110599;28;20450;-69
2023/08/30 00:20:56;;;;;;;4.07;2.42;;;;;;;;;;5109787;28;20591;-70
2023/08/30 00:23:24;;;;;;;4.68;2.50;;;;;;;;;;5109735;28;20051;-70
2023/08/30 00:25:51;;;;;;;4.22;2.22;;;;;;;;;;5110740;28;20054;-70
2023/08/30 00:28:18;;;;;;;5.65;2.42;;;;;;;;;;5091376;28;20055;-70
2023/08/30 00:30:45;;;;;;;4.07;2.42;;;;;;;;;;5111268;28;20110;-70
2023/08/30 00:33:12;;;;;;;5.30;2.60;;;;;;;;;;5110722;28;20746;-70
2023/08/30 00:35:41;;;;;;;5.18;2.40;;;;;;;;;;5108020;28;20047;-70
2023/08/30 00:38:08;;;;;;;4.05;2.28;;;;;;;;;;5110646;28;20050;-69
2023/08/30 00:40:41;;;;;;;5.40;2.60;;;;;;;;;;5110918;28;20046;-70
2023/08/30 00:43:09;;;;;;;4.75;2.80;;;;;;;;;;5107910;28;20054;-70
2023/08/30 00:45:36;;;;;;;4.35;2.72;;;;;;;;;;5111430;28;20046;-70
2023/08/30 00:48:04;;;;;;;6.03;2.63;;;;;;;;;;5108914;28;20546;-70
2023/08/30 00:50:31;;;;;;;4.22;2.80;;;;;;;;;;5111201;28;20566;-69
2023/08/30 00:53:05;;;;;;;3.67;2.33;;;;;;;;;;5110183;28;20043;-70
2023/08/30 00:55:32;;;;;;;;;;;;;;;;;;5109929;28;20909;-70
2023/08/30 00:58:00;;;;;;;4.13;2.60;;;;;;;;;;5104895;28;20002;-69
2023/08/30 01:00:28;;;;;;;4.88;2.47;;;;;;;;;;5110064;28;20142;-69
2023/08/30 01:02:55;;;;;;;3.90;2.28;;;;;;;;;;5110154;28;20109;-70
2023/08/30 01:05:24;;;;;;;4.05;2.58;;;;;;;;;;5110626;28;20047;-70
2023/08/30 01:07:51;;;;;;;3.60;2.70;;;;;;;;;;5090869;28;20549;-69
2023/08/30 01:10:20;;;;;;;6.05;2.30;;;;;;;;;;5110233;28;20052;-69
2023/08/30 01:12:49;;;;;;;4.70;2.67;;;;;;;;;;5110341;28;20499;-69
2023/08/30 01:15:17;;;;;;;5.13;2.67;;;;;;;;;;5110155;28;20574;-69
2023/08/30 01:17:45;;;;;;;6.00;3.13;;;;;;;;;;5110792;28;20047;-69
2023/08/30 01:20:16;;;;;;;6.57;2.78;;;;;;;;;;5091103;28;20047;-70
2023/08/30 01:22:47;;;;;;;3.45;2.63;;;;;;;;;;5103936;28;20096;-70
2023/08/30 01:25:17;;;;;;;4.50;2.97;;;;;;;;;;5109672;28;20043;-70
2023/08/30 01:27:47;;;;;;;6.43;2.85;;;;;;;;;;5107873;28;20491;-69
2023/08/30 01:30:15;;;;;;;5.45;3.00;;;;;;;;;;5110039;28;20047;-69
2023/08/30 01:32:44;;;;;;;7.05;3.28;;;;;;;;;;5089974;28;20132;-69
2023/08/30 01:35:11;;;;;;;4.63;2.78;;;;;;;;;;5091923;28;20513;-69
2023/08/30 01:37:39;;;;;;;4.60;3.20;;;;;;;;;;5109409;28;20050;-70
2023/08/30 01:40:07;;;;;;;4.85;3.30;;;;;;;;;;5108487;28;20432;-70
2023/08/30 01:42:35;;;;;;;6.25;3.40;;;;;;;;;;5108614;28;20043;-69
2023/08/30 01:45:04;;;;;;;5.15;3.30;;;;;;;;;;5110183;28;20047;-70
2023/08/30 01:47:33;;;;;;;4.70;2.97;;;;;;;;;;5107864;28;20055;-69
2023/08/30 01:50:01;;;;;;;4.45;3.00;;;;;;;;;;5108474;27;20091;-69
2023/08/30 01:52:28;;;;;;;4.95;2.90;;;;;;;;;;5109237;28;20130;-70
2023/08/30 01:54:56;;;;;;;5.65;3.05;;;;;;;;;;5108706;28;20044;-70
2023/08/30 01:57:23;;;;;;;5.65;3.17;;;;;;;;;;5108380;28;20422;-70
2023/08/30 01:59:50;;;;;;;7.53;3.53;;;;;;;;;;5106864;28;20040;-69
2023/08/30 02:02:19;;;;;;;6.55;3.17;;;;;;;;;;5109585;28;20555;-70
2023/08/30 02:04:46;;;;;;;4.53;3.05;;;;;;;;;;5110500;28;20043;-70
2023/08/30 02:07:17;;;;;;;6.20;3.40;;;;;;;;;;5108629;28;20048;-70
2023/08/30 02:09:48;;;;;;;5.18;3.05;;;;;;;;;;5103560;28;20055;-70
2023/08/30 02:12:17;;;;;;;5.10;3.55;;;;;;;;;;5108159;28;20047;-70
2023/08/30 02:14:46;;;;;;;8.63;3.85;;;;;;;;;;5110031;28;20051;-69
2023/08/30 02:17:15;;;;;;;5.53;3.80;;;;;;;;;;5109434;28;20044;-70
2023/08/30 02:19:44;;;;;;;7.68;4.10;;;;;;;;;;5105240;28;20047;-70
2023/08/30 02:22:11;;;;;;;6.50;3.80;;;;;;;;;;5109206;28;20047;-69
2023/08/30 02:24:39;;;;;;;6.70;4.22;;;;;;;;;;5090052;28;20085;-69
2023/08/30 02:27:06;;;;;;;6.03;4.03;;;;;;;;;;5109614;28;20053;-69
2023/08/30 02:29:34;;;;;;;5.88;4.28;;;;;;;;;;5108182;28;20056;-69
2023/08/30 02:32:01;;;;;;;6.43;4.30;;;;;;;;;;5091779;28;20113;-69
2023/08/30 02:34:29;;;;;;;6.05;4.13;;;;;;;;;;5091040;28;20051;-70
2023/08/30 02:36:57;;;;;;;6.45;4.25;;;;;;;;;;5108488;28;20403;-69
2023/08/30 02:39:24;;;;;;;6.53;4.05;;;;;;;;;;5109608;28;20483;-69
2023/08/30 02:41:52;;;;;;;6.95;4.65;;;;;;;;;;5108603;28;20047;-71
2023/08/30 02:44:19;;;;;;;8.68;4.35;;;;;;;;;;5091539;28;20044;-70
2023/08/30 02:46:46;;;;;;;6.72;4.45;;;;;;;;;;5096117;28;20134;-69
2023/08/30 02:49:13;;;;;;;7.00;4.90;;;;;;;;;;5110897;28;20146;-69
2023/08/30 02:51:41;;;;;;;7.45;4.97;;;;;;;;;;5113657;28;20047;-70
2023/08/30 02:54:12;;;;;;;6.43;4.75;;;;;;;;;;5092153;28;20066;-70
2023/08/30 02:56:39;;;;;;;9.27;5.13;;;;;;;;;;5095578;28;20190;-70
2023/08/30 02:59:06;;;;;;;11.45;4.88;;;;;;;;;;5112578;28;20077;-69
2023/08/30 03:01:34;;;;;;;8.38;5.55;;;;;;;;;;5111069;28;20044;-70
2023/08/30 03:04:01;;;;;;;8.07;5.07;;;;;;;;;;5113840;28;20051;-69
2023/08/30 03:06:28;;;;;;;10.43;5.45;;;;;;;;;;5111622;28;20082;-70
2023/08/30 03:08:55;;;;;;;9.13;5.05;;;;;;;;;;5098266;28;20052;-69
2023/08/30 03:11:24;;;;;;;7.97;4.95;;;;;;;;;;5112724;28;20055;-69
2023/08/30 03:13:51;;;;;;;6.28;4.97;;;;;;;;;;5111712;28;20043;-69
2023/08/30 03:16:19;;;;;;;9.30;4.50;;;;;;;;;;5111068;28;20059;-70
2023/08/30 03:18:46;;;;;;;10.00;4.93;;;;;;;;;;5112126;28;20047;-69
2023/08/30 03:21:13;;;;;;;8.55;5.15;;;;;;;;;;5110662;28;20448;-69
2023/08/30 03:23:41;;;;;;;6.60;4.63;;;;;;;;;;5111858;28;20040;-69
2023/08/30 03:26:11;;;;;;;7.20;5.13;;;;;;;;;;5111013;28;20120;-69
2023/08/30 03:28:40;;;;;;;7.63;5.10;;;;;;;;;;5111421;28;20048;-70
2023/08/30 03:31:14;;;;;;;8.27;5.35;;;;;;;;;;5112227;28;20044;-69
2023/08/30 03:33:42;;;;;;;10.10;5.72;;;;;;;;;;5087470;28;20046;-69
2023/08/30 03:36:10;;;;;;;8.90;5.30;;;;;;;;;;5111512;28;20502;-70
2023/08/30 03:38:37;;;;;;;8.02;5.78;;;;;;;;;;5111917;28;20059;-69
2023/08/30 03:41:04;;;;;;;12.55;5.32;;;;;;;;;;5110459;28;20051;-70
2023/08/30 03:43:32;;;;;;;8.85;5.78;;;;;;;;;;5093310;28;20437;-70
2023/08/30 03:46:02;;;;;;;8.48;5.82;;;;;;;;;;5110900;28;20479;-70
2023/08/30 03:48:30;;;;;;;9.20;5.63;;;;;;;;;;5109413;28;20552;-71
2023/08/30 03:50:57;;;;;;;11.10;6.35;;;;;;;;;;5094273;28;20055;-70
2023/08/30 03:53:24;;;;;;;14.43;6.93;;;;;;;;;;5110909;28;20048;-71
2023/08/30 03:55:52;;;;;;;11.27;6.22;;;;;;;;;;5108507;28;20073;-71
2023/08/30 03:58:19;;;;;;;10.68;6.50;;;;;;;;;;5093757;28;20403;-71
2023/08/30 04:00:47;;;;;;;15.90;7.32;;;;;;;;;;5111619;28;20048;-71
2023/08/30 04:03:16;;;;;;;12.95;7.38;;;;;;;;;;5111772;28;20159;-71
2023/08/30 04:05:44;;;;;;;14.75;7.53;;;;;;;;;;5107928;28;20044;-71
2023/08/30 04:08:11;;;;;;;12.57;7.88;;;;;;;;;;5111591;28;20047;-71
2023/08/30 04:10:39;;;;;;;14.85;7.13;;;;;;;;;;5101299;28;20406;-71
2023/08/30 04:13:07;;;;;;;15.48;8.15;;;;;;;;;;5088931;28;20051;-71
2023/08/30 04:15:34;;;;;;;14.52;7.82;;;;;;;;;;5107618;28;20058;-71
2023/08/30 04:18:02;;;;;;;18.00;8.13;;;;;;;;;;5111409;28;20048;-71
2023/08/30 04:20:32;;;;;;;14.60;8.30;;;;;;;;;;5092119;28;20402;-71
2023/08/30 04:23:01;;;;;;;13.82;8.23;;;;;;;;;;5092409;28;20447;-71
2023/08/30 04:25:29;;;;;;;15.00;8.63;;;;;;;;;;5110164;28;20126;-70
2023/08/30 04:27:56;;;;;;;13.38;8.35;;;;;;;;;;5111398;28;20043;-72
2023/08/30 04:30:24;;;;;;;16.90;8.68;;;;;;;;;;5110726;28;20055;-71
2023/08/30 04:32:51;;;;;;;17.23;8.93;;;;;;;;;;5107754;28;20078;-69
2023/08/30 04:35:18;;;;;;;15.80;9.35;;;;;;;;;;5109678;28;20040;-70
2023/08/30 04:37:48;;;;;;;16.13;8.90;;;;;;;;;;5110082;28;20409;-69
2023/08/30 04:40:15;;;;;;;17.95;8.85;;;;;;;;;;5110554;28;20047;-69
2023/08/30 04:42:43;;;;;;;16.48;9.30;;;;;;;;;;5093201;28;20043;-69
2023/08/30 04:45:10;;;;;;;15.77;9.32;;;;;;;;;;5109396;28;20051;-69
2023/08/30 04:47:38;;;;;;;18.63;10.05;;;;;;;;;;5109153;28;20040;-69
2023/08/30 04:50:05;;;;;;;15.25;8.77;;;;;;;;;;5109022;28;20431;-70
2023/08/30 04:52:33;;;;;;;17.00;9.20;;;;;;;;;;5105182;28;20477;-70
2023/08/30 04:55:01;;;;;;;16.75;9.70;;;;;;;;;;5110319;28;20100;-70
2023/08/30 04:57:29;;;;;;;17.52;9.70;;;;;;;;;;5108549;28;20375;-70
2023/08/30 04:59:57;;;;;;;14.57;9.30;;;;;;;;;;5109886;28;20055;-70
2023/08/30 05:02:24;;;;;;;18.30;9.63;;;;;;;;;;5091203;28;21648;-69
2023/08/30 05:04:51;;;;;;;17.80;9.85;;;;;;;;;;5091331;28;20059;-70
2023/08/30 05:07:18;;;;;;;18.95;9.88;;;;;;;;;;5104493;28;20070;-69
2023/08/30 05:09:45;;;;;;;20.08;10.18;;;;;;;;;;5111320;28;20051;-69
2023/08/30 05:12:14;;;;;;;16.10;9.50;;;;;;;;;;5110091;28;20044;-69
2023/08/30 05:14:47;;;;;;;19.25;9.68;;;;;;;;;;5109724;28;20584;-69
2023/08/30 05:17:17;;;;;;;15.68;8.85;;;;;;;;;;5109682;28;20097;-70
2023/08/30 05:19:44;;;;;;;17.42;9.00;;;;;;;;;;5108341;28;20058;-69
2023/08/30 05:22:12;;;;;;;15.50;8.68;;;;;;;;;;5108886;28;20055;-70
2023/08/30 05:24:39;;;;;;;16.33;8.82;;;;;;;;;;5093060;28;20494;-69
2023/08/30 05:27:07;;;;;;;15.15;8.43;;;;;;;;;;5108916;28;20541;-70
2023/08/30 05:29:35;;;;;;;16.08;8.10;;;;;;;;;;5092204;28;20039;-70
2023/08/30 05:32:03;;;;;;;18.02;8.27;;;;;;;;;;5109158;28;20047;-69
2023/08/30 05:34:31;;;;;;;15.32;8.85;;;;;;;;;;5109627;28;20043;-70
2023/08/30 05:36:58;;;;;;;15.90;8.43;;;;;;;;;;5109855;28;20126;-69
2023/08/30 05:39:25;;;;;;;13.85;8.50;;;;;;;;;;5109954;28;21339;-69
2023/08/30 05:41:52;;;;;;;14.48;8.57;;;;;;;;;;5110594;28;20047;-70
2023/08/30 05:44:20;;;;;;;20.48;8.65;;;;;;;;;;5109659;28;20051;-70
2023/08/30 05:46:48;;;;;;;14.25;8.77;;;;;;;;;;5107212;28;20046;-70
2023/08/30 05:49:15;;;;;;;16.52;8.80;;;;;;;;;;5108810;28;20052;-69
2023/08/30 05:51:43;;;;;;;20.88;8.98;;;;;;;;;;5110555;28;20050;-70
2023/08/30 05:54:10;;;;;;;14.90;8.38;;;;;;;;;;5109928;28;20047;-69
2023/08/30 05:56:38;;;;;;;13.77;7.88;;;;;;;;;;5109567;28;20050;-69
2023/08/30 05:59:05;;;;;;;15.73;9.07;;;;;;;;;;5105294;28;20047;-70
2023/08/30 06:01:33;;;;;;;14.48;8.40;;;;;;;;;;5091098;28;20063;-69
2023/08/30 06:04:01;;;;;;;14.05;8.55;;;;;;;;;;5109062;28;20062;-69
2023/08/30 06:06:28;;;;;;;14.00;8.52;;;;;;;;;;5110446;28;20043;-69
2023/08/30 06:08:56;;;;;;;14.18;8.30;;;;;;;;;;5107313;28;20048;-69
2023/08/30 06:11:23;;;;;;;17.60;8.90;;;;;;;;;;5091689;28;20479;-70
2023/08/30 06:13:50;;;;;;;14.98;8.35;;;;;;;;;;5108991;28;20059;-69
2023/08/30 06:16:17;;;;;;;15.55;8.07;;;;;;;;;;5108476;28;20438;-68
2023/08/30 06:18:45;;;;;;;15.05;8.32;;;;;;;;;;5108563;28;20055;-68
2023/08/30 06:21:13;;;;;;;16.13;8.10;;;;;;;;;;5114648;28;20226;-69
2023/08/30 06:23:40;;;;;;;13.82;8.18;;;;;;;;;;5112799;28;20490;-69
2023/08/30 06:26:08;;;;;;;17.20;8.43;;;;;;;;;;5114159;28;20044;-69
2023/08/30 06:28:35;;;;;;;14.45;8.18;;;;;;;;;;5113132;28;20043;-69
2023/08/30 06:31:02;;;;;;;15.25;8.15;;;;;;;;;;5115535;28;20561;-68
2023/08/30 06:33:30;;;;;;;15.65;8.63;;;;;;;;;;5112469;28;20039;-68
2023/08/30 06:35:57;;;;;;;12.80;7.65;;;;;;;;;;5113784;28;20058;-68
2023/08/30 06:38:25;;;;;;;13.15;7.72;;;;;;;;;;5113174;28;20062;-68
2023/08/30 06:40:53;;;;;;;13.05;8.15;;;;;;;;;;5109324;28;20403;-68
2023/08/30 06:43:20;;;;;;;15.00;7.72;;;;;;;;;;5113560;28;20043;-67
2023/08/30 06:45:47;;;;;;;16.00;7.57;;;;;;;;;;5113801;28;20051;-69
2023/08/30 06:48:15;;;;;;;13.90;7.50;;;;;;;;;;5112682;27;20066;-67
2023/08/30 06:50:42;;;;;;;13.10;7.60;;;;;;;;;;5107514;27;20083;-68
2023/08/30 06:53:10;;;;;;;13.05;7.40;;;;;;;;;;5113936;28;20418;-68
2023/08/30 06:55:38;;;;;;;10.65;6.68;;;;;;;;;;5112700;27;20058;-69
2023/08/30 06:58:06;;;;;;;11.95;6.85;;;;;;;;;;5113212;28;20853;-67
2023/08/30 07:00:33;;;;;;;10.43;6.32;;;;;;;;;;5094628;28;20047;-68
2023/08/30 07:03:01;;;;;;;11.77;6.97;;;;;;;;;;5113215;28;20570;-68
2023/08/30 07:05:28;;;;;;;11.10;6.07;;;;;;;;;;5107558;28;20044;-68
2023/08/30 07:07:55;;;;;;;11.50;6.03;;;;;;;;;;5112672;28;20053;-68
2023/08/30 07:10:23;;;;;;;11.82;6.95;;;;;;;;;;5112045;28;20261;-68
2023/08/30 07:12:51;;;;;;;11.43;6.35;;;;;;;;;;5109904;28;20055;-70
2023/08/30 07:15:19;;;;;;;11.50;6.18;;;;;;;;;;5111752;28;20351;-68
2023/08/30 07:17:46;;;;;;;10.23;6.20;;;;;;;;;;5109082;28;20522;-67
2023/08/30 07:20:13;;;;;;;9.75;6.07;;;;;;;;;;5109314;28;20043;-67
2023/08/30 07:22:40;;;;;;;10.50;5.97;;;;;;;;;;5113207;28;20324;-67
2023/08/30 07:25:10;;;;;;;12.40;6.13;;;;;;;;;;5094604;28;20522;-69
2023/08/30 07:27:37;;;;;;;11.07;6.32;;;;;;;;;;5112828;28;20065;-67
2023/08/30 07:30:07;;;;;;;10.35;6.07;;;;;;;;;;5110976;28;20069;-68
2023/08/30 07:32:35;;;;;;;12.43;7.00;;;;;;;;;;5103580;28;20535;-68
2023/08/30 07:35:03;;;;;;;9.88;5.53;;;;;;;;;;5111510;28;20423;-68
2023/08/30 07:37:30;;;;;;;11.35;6.03;;;;;;;;;;5095074;28;20047;-69
2023/08/30 07:39:57;;;;;;;11.30;6.30;;;;;;;;;;5112273;28;20058;-70
2023/08/30 07:42:24;;;;;;;13.75;6.55;;;;;;;;;;5093510;28;20164;-69
2023/08/30 07:44:52;;;;;;;9.55;6.07;;;;;;;;;;5113077;28;20047;-69
2023/08/30 07:47:20;;;;;;;10.57;6.10;;;;;;;;;;5105539;27;20384;-68
2023/08/30 07:49:47;;;;;;;10.05;5.78;;;;;;;;;;5111684;28;20059;-68
2023/08/30 07:52:15;;;;;;;9.48;6.03;;;;;;;;;;5112055;28;20047;-69
2023/08/30 07:54:42;;;;;;;10.73;6.28;;;;;;;;;;5111854;28;20039;-68
2023/08/30 07:57:10;;;;;;;10.50;6.00;;;;;;;;;;5110992;28;20050;-68
2023/08/30 07:59:37;;;;;;;12.80;6.13;;;;;;;;;;5111209;28;20054;-70
2023/08/30 08:02:06;;;;;;;12.15;5.80;;;;;;;;;;5108761;28;20506;-68
2023/08/30 08:04:34;;;;;;;10.80;5.82;;;;;;;;;;5112007;28;20469;-68
2023/08/30 08:07:02;;;;;;;11.98;6.47;;;;;;;;;;5111165;28;20076;-68
2023/08/30 08:09:29;;;;;;;12.85;6.20;;;;;;;;;;5110869;28;20040;-68
2023/08/30 08:11:57;;;;;;;11.40;6.20;;;;;;;;;;5111445;28;20047;-69
2023/08/30 08:14:24;;;;;;;10.35;6.35;;;;;;;;;;5111345;28;20097;-68
2023/08/30 08:16:51;;;;;;;10.93;6.10;;;;;;;;;;5111733;28;20495;-68
2023/08/30 08:19:19;;;;;;;10.80;6.07;;;;;;;;;;5092301;28;20051;-68
2023/08/30 08:21:49;;;;;;;9.65;5.75;;;;;;;;;;5111647;28;20053;-68
2023/08/30 08:24:16;;;;;;;10.60;5.60;;;;;;;;;;5092919;28;20055;-68
2023/08/30 08:26:45;;;;;;;10.85;4.47;;;;;;;;;;5111200;28;20056;-68
2023/08/30 08:29:14;;;;;;;9.73;4.57;;;;;;;;;;5111232;28;20127;-69
2023/08/30 08:31:41;;;;;;;10.82;4.20;;;;;;;;;;5110164;28;20436;-70
2023/08/30 08:34:10;;;;;;;6.38;3.50;;;;;;;;;;5093805;28;20061;-68
2023/08/30 08:36:37;;;;;;;7.25;4.13;;;;;;;;;;5110859;28;20050;-68
2023/08/30 08:39:06;;;;;;;6.82;3.63;;;;;;;;;;5111488;28;20047;-68
2023/08/30 08:41:36;;;;;;;6.95;3.63;;;;;;;;;;5110632;28;20051;-68
2023/08/30 08:44:05;;;;;;;7.85;3.33;;;;;;;;;;5110251;28;20055;-68
2023/08/30 08:46:33;;;;;;;6.13;2.88;;;;;;;;;;5111393;28;20058;-69
2023/08/30 08:49:03;;;;;;;5.50;2.90;;;;;;;;;;5111172;27;20384;-68
2023/08/30 08:51:32;;;;;;;4.88;2.50;;;;;;;;;;5111319;28;20090;-69
2023/08/30 08:54:03;;;;;;;5.50;2.58;;;;;;;;;;5110214;28;20055;-68
2023/08/30 08:56:32;;;;;;;4.65;2.20;;;;;;;;;;5111047;28;20478;-69
2023/08/30 08:58:59;;;;;;;3.70;2.58;;;;;;;;;;5099732;28;20080;-68
2023/08/30 09:01:27;;;;;;;4.75;2.50;;;;;;;;;;5110206;28;20044;-68
2023/08/30 09:03:54;;;;;;;3.38;2.15;;;;;;;;;;5110366;28;20051;-68
2023/08/30 09:06:22;;;;;;;5.93;2.28;;;;;;;;;;5111027;28;20074;-68
2023/08/30 09:08:49;;;;;;;5.65;3.17;;;;;;;;;;5092082;28;20054;-68
2023/08/30 09:11:17;;;;;;;7.10;3.92;;;;;;;;;;5110405;28;20054;-68
2023/08/30 09:13:45;;;;;;;5.43;3.00;;;;;;;;;;5105534;28;20048;-68
2023/08/30 09:16:13;;;;;;;6.32;2.60;;;;;;;;;;5109519;28;20434;-68
2023/08/30 09:18:40;;;;;;;6.55;3.28;;;;;;;;;;5109939;28;20047;-68
2023/08/30 09:21:08;;;;;;;5.13;3.05;;;;;;;;;;5110007;28;20043;-67
2023/08/30 09:23:35;;;;;;;6.20;2.95;;;;;;;;;;5110105;28;20506;-68
2023/08/30 09:26:03;;;;;;;5.72;3.55;;;;;;;;;;5110700;28;20096;-69
2023/08/30 09:28:31;;;;;;;7.85;3.85;;;;;;;;;;5091449;28;20105;-70
2023/08/30 09:31:00;;;;;;;8.15;3.88;;;;;;;;;;5110957;28;20100;-70
2023/08/30 09:33:31;;;;;;;7.15;3.70;;;;;;;;;;5110495;28;20092;-69
2023/08/30 09:35:59;;;;;;;8.68;3.88;;;;;;;;;;5107243;28;20048;-70
2023/08/30 09:38:26;;;;;;;6.82;3.95;;;;;;;;;;5091175;28;20062;-70
2023/08/30 09:40:54;;;;;;;8.20;3.90;;;;;;;;;;5086062;28;20051;-69
2023/08/30 09:43:23;;;;;;;7.82;3.72;;;;;;;;;;5110418;28;20494;-70
2023/08/30 09:45:51;;;;;;;6.45;3.33;;;;;;;;;;5110225;28;20067;-68
2023/08/30 09:48:22;;;;;;;6.93;2.80;;;;;;;;;;5111386;27;20050;-69
2023/08/30 09:50:52;;;;;;;6.65;2.90;;;;;;;;;;5069445;28;20084;-69
2023/08/30 09:53:21;;;;;;;4.63;2.90;;;;;;;;;;5069235;28;20430;-70
2023/08/30 09:55:50;;;;;;;3.83;2.40;;;;;;;;;;5068346;28;20053;-69
2023/08/30 09:58:17;;;;;;;4.90;2.42;;;;;;;;;;5069184;28;20106;-69
2023/08/30 10:00:45;;;;;;;6.47;2.47;;;;;;;;;;5069247;28;20056;-69
2023/08/30 10:03:13;;;;;;;4.07;2.53;;;;;;;;;;5068957;28;20051;-70
2023/08/30 10:05:43;;;;;;;5.28;2.40;;;;;;;;;;5066680;28;20064;-68
2023/08/30 10:08:10;;;;;;;4.65;2.35;;;;;;;;;;5069582;28;20392;-68
2023/08/30 10:10:37;;;;;;;6.47;2.35;;;;;;;;;;5069106;28;20060;-68
2023/08/30 10:13:07;;;;;;;5.22;2.38;;;;;;;;;;5069748;28;20090;-69
2023/08/30 10:15:36;;;;;;;4.32;2.47;;;;;;;;;;5068267;28;20056;-69
2023/08/30 10:18:03;;;;;;;3.20;2.22;;;;;;;;;;5069566;28;20487;-69
2023/08/30 10:20:31;;;;;;;5.32;2.40;;;;;;;;;;5068549;28;20109;-69
2023/08/30 10:23:00;;;;;;;4.47;2.72;;;;;;;;;;5068587;28;20052;-69
2023/08/30 10:25:29;;;;;;;4.80;2.63;;;;;;;;;;5063799;28;20136;-69
2023/08/30 10:27:57;;;;;;;4.20;2.70;;;;;;;;;;5069058;28;20049;-68
2023/08/30 10:30:24;;;;;;;5.53;3.05;;;;;;;;;;5069677;28;20052;-68
2023/08/30 10:32:51;;;;;;;5.70;2.92;;;;;;;;;;5067590;28;20052;-69
2023/08/30 10:35:20;;;;;;;4.70;2.95;;;;;;;;;;5070119;28;20049;-69
2023/08/30 10:37:55;;;;;;;4.97;2.92;;;;;;;;;;5066813;28;20060;-69
2023/08/30 10:40:24;;;;;;;7.32;3.05;;;;;;;;;;5068206;28;20048;-69
2023/08/30 10:43:09;;;;;;;5.38;3.28;;;;;;;;;;5068087;28;21261;-69
2023/08/30 10:45:36;;;;;;;7.85;3.63;;;;;;;;;;5067617;28;20499;-69
2023/08/30 10:48:04;;;;;;;7.68;3.83;;;;;;;;;;5068505;28;20060;-69
2023/08/30 10:50:32;;;;;;;6.20;3.75;;;;;;;;;;5088320;28;20624;-69
2023/08/30 10:52:59;;;;;;;8.27;4.30;;;;;;;;;;5089908;28;20086;-69
2023/08/30 10:55:28;;;;;;;6.65;3.97;;;;;;;;;;5086807;28;20058;-69
2023/08/30 10:58:02;;;;;;;7.75;3.88;;;;;;;;;;5088849;28;20529;-69
2023/08/30 11:00:30;;;;;;;7.78;3.95;;;;;;;;;;5086767;28;20087;-69
2023/08/30 11:02:58;;;;;;;5.63;3.80;;;;;;;;;;5088429;28;20143;-69
2023/08/30 11:05:27;;;;;;;6.90;4.22;;;;;;;;;;5089810;28;20055;-69
2023/08/30 11:07:55;;;;;;;6.65;3.72;;;;;;;;;;5091179;28;20129;-69
2023/08/30 11:10:23;;;;;;;6.10;3.50;;;;;;;;;;5091764;28;20067;-70
2023/08/30 11:12:51;;;;;;;5.18;3.30;;;;;;;;;;5108675;28;20044;-69
2023/08/30 11:15:20;;;;;;;6.28;3.45;;;;;;;;;;5091338;28;20047;-70
2023/08/30 11:17:47;;;;;;;6.80;3.80;;;;;;;;;;5092950;28;20044;-70
2023/08/30 11:20:16;;;;;;;7.93;3.85;;;;;;;;;;5090386;28;20048;-70
2023/08/30 11:22:44;;;;;;;5.13;3.42;;;;;;;;;;5093074;28;20081;-70
2023/08/30 11:25:12;;;;;;;8.32;3.92;;;;;;;;;;5104317;28;20145;-70
2023/08/30 11:27:40;;;;;;;7.93;3.60;;;;;;;;;;5083258;28;20052;-71
2023/08/30 11:30:09;;;;;;;6.78;3.95;;;;;;;;;;5092245;28;20058;-70
2023/08/30 11:32:37;;;;;;;6.07;3.72;;;;;;;;;;5093080;28;20048;-69
2023/08/30 11:35:05;;;;;;;7.43;3.40;;;;;;;;;;5091797;28;20492;-69
2023/08/30 11:37:32;;;;;;;5.80;3.92;;;;;;;;;;5091440;28;20091;-70
2023/08/30 11:40:00;;;;;;;8.13;4.20;;;;;;;;;;5091077;28;20048;-69
2023/08/30 11:42:27;;;;;;;9.75;4.57;;;;;;;;;;5092264;28;20059;-69
2023/08/30 11:44:55;;;;;;;7.53;3.35;;;;;;;;;;5091779;28;20456;-69
2023/08/30 11:47:24;;;;;;;5.75;3.80;;;;;;;;;;5091763;28;20048;-69
2023/08/30 11:49:51;;;;;;;6.57;3.72;;;;;;;;;;5104312;28;20047;-69
2023/08/30 11:52:19;;;;;;;6.22;4.05;;;;;;;;;;5111489;28;20043;-69
2023/08/30 11:54:48;;;;;;;6.57;3.70;;;;;;;;;;5104867;28;20044;-69
2023/08/30 11:57:15;;;;;;;6.95;4.07;;;;;;;;;;5110953;28;20490;-69
2023/08/30 11:59:42;;;;;;;7.72;4.75;;;;;;;;;;5112488;28;20040;-69
2023/08/30 12:02:10;;;;;;;7.97;4.53;;;;;;;;;;5111148;28;20091;-69
2023/08/30 12:04:42;;;;;;;7.28;4.55;;;;;;;;;;5112191;28;20511;-69
2023/08/30 12:07:10;;;;;;;9.25;4.40;;;;;;;;;;5111095;28;20494;-69
2023/08/30 12:09:38;;;;;;;8.07;4.53;;;;;;;;;;5084702;28;20050;-69
2023/08/30 12:12:08;;;;;;;9.25;4.45;;;;;;;;;;5111822;28;20051;-69
2023/08/30 12:14:36;;;;;;;7.07;4.10;;;;;;;;;;5093176;28;20058;-69
2023/08/30 12:17:03;;;;;;;6.55;4.55;;;;;;;;;;5110822;28;20047;-69
2023/08/30 12:19:31;;;;;;;7.50;4.70;;;;;;;;;;5112283;28;20039;-69
2023/08/30 12:22:04;;;;;;;6.97;4.63;;;;;;;;;;5111229;28;20101;-69
2023/08/30 12:24:41;;;;;;;5.72;3.92;;;;;;;;;;5112642;28;20521;-69
2023/08/30 12:27:09;;;;;;;4.97;3.50;;;;;;;;;;5111563;28;20483;-69
2023/08/30 12:29:36;;;;;;;8.43;3.33;;;;;;;;;;5111544;28;20047;-69
2023/08/30 12:32:03;;;;;;;4.47;3.45;;;;;;;;;;5111941;28;20044;-69
2023/08/30 12:34:30;;;;;;;4.30;3.20;;;;;;;;;;5110470;28;20087;-69
2023/08/30 12:36:59;;;;;;;5.25;3.00;;;;;;;;;;5111758;28;20487;-69
2023/08/30 12:39:27;;;;;;;3.90;2.67;;;;;;;;;;5111079;28;20051;-69
2023/08/30 12:41:54;;;;;;;3.92;2.97;;;;;;;;;;5111981;28;20047;-69
2023/08/30 12:44:21;;;;;;;5.95;2.80;;;;;;;;;;5094091;28;20044;-69
2023/08/30 12:46:48;;;;;;;5.05;3.30;;;;;;;;;;5111487;28;20055;-69
2023/08/30 12:49:16;;;;;;;5.70;3.53;;;;;;;;;;5108290;28;20054;-69
2023/08/30 12:51:43;;;;;;;4.78;3.05;;;;;;;;;;5093531;28;20051;-69
2023/08/30 12:54:11;;;;;;;4.60;3.20;;;;;;;;;;5094014;28;20051;-69
2023/08/30 12:56:39;;;;;;;5.15;3.17;;;;;;;;;;5110622;28;20051;-70
2023/08/30 12:59:06;;;;;;;3.85;2.70;;;;;;;;;;5093105;28;20056;-70
2023/08/30 13:01:33;;;;;;;4.15;2.88;;;;;;;;;;5111066;28;20482;-70
2023/08/30 13:04:00;;;;;;;3.88;2.85;;;;;;;;;;5110732;28;20043;-69
2023/08/30 13:06:27;;;;;;;3.40;2.60;;;;;;;;;;5110848;28;20047;-70
2023/08/30 13:08:55;;;;;;;4.07;3.08;;;;;;;;;;5092613;28;20051;-70
2023/08/30 13:11:26;;;;;;;4.35;2.70;;;;;;;;;;5094385;28;20059;-70
2023/08/30 13:13:53;;;;;;;5.50;2.78;;;;;;;;;;5109998;28;20096;-70
2023/08/30 13:16:20;;;;;;;4.72;3.00;;;;;;;;;;5110607;28;20048;-70
2023/08/30 13:18:48;;;;;;;4.38;2.70;;;;;;;;;;5110221;28;20063;-70
2023/08/30 13:21:15;;;;;;;4.75;2.80;;;;;;;;;;5091787;28;20051;-71
2023/08/30 13:23:42;;;;;;;5.15;3.17;;;;;;;;;;5108337;28;20402;-71
2023/08/30 13:26:09;;;;;;;5.85;3.40;;;;;;;;;;5097230;28;20058;-71
2023/08/30 13:28:38;;;;;;;4.22;2.85;;;;;;;;;;5090572;28;20384;-71
2023/08/30 13:31:08;;;;;;;4.40;2.50;;;;;;;;;;5091580;28;20051;-71
2023/08/30 13:33:35;;;;;;;4.72;2.40;;;;;;;;;;5091712;28;20054;-71
2023/08/30 13:36:03;;;;;;;2.95;2.35;;;;;;;;;;5109464;28;20505;-70
2023/08/30 13:38:30;;;;;;;3.28;2.28;;;;;;;;;;5092069;28;20062;-71
2023/08/30 13:41:00;;;;;;;5.05;3.00;;;;;;;;;;5105349;28;20375;-71
2023/08/30 13:43:27;;;;;;;4.15;2.25;;;;;;;;;;5085586;28;20089;-70
2023/08/30 13:46:00;;;;;;;3.38;2.20;;;;;;;;;;5106173;28;20054;-71
2023/08/30 13:48:28;;;;;;;4.50;2.20;;;;;;;;;;5088866;28;20096;-71
2023/08/30 13:50:56;;;;;;;4.35;2.30;;;;;;;;;;5106658;28;20134;-71
2023/08/30 13:53:24;;;;;;;3.00;1.75;;;;;;;;;;5106535;28;20054;-71
2023/08/30 13:55:51;;;;;;;2.92;1.65;;;;;;;;;;5091300;28;20062;-71
2023/08/30 13:58:18;;;;;;;3.28;1.30;;;;;;;;;;5105283;28;20104;-70
2023/08/30 14:00:46;;;;;;;4.25;1.10;;;;;;;;;;5104986;28;20092;-71
2023/08/30 14:03:15;;;;;;;2.80;1.13;;;;;;;;;;5091865;28;20056;-71
2023/08/30 14:05:42;;;;;;;3.08;1.20;;;;;;;;;;5110269;28;20092;-71
2023/08/30 14:08:09;;;;;;;3.88;1.42;;;;;;;;;;5109454;28;20052;-71
2023/08/30 14:10:37;;;;;;;4.55;1.30;;;;;;;;;;5109494;28;20567;-71
2023/08/30 14:13:05;;;;;;;6.57;1.27;;;;;;;;;;5109578;28;20502;-71
2023/08/30 14:15:32;;;;;;;5.22;1.05;;;;;;;;;;5106748;28;20044;-69
2023/08/30 14:17:59;;;;;;;3.30;1.10;;;;;;;;;;5109170;28;20075;-70
2023/08/30 14:20:29;;;;;;;4.20;0.80;;;;;;;;;;5109118;28;20047;-70
2023/08/30 14:22:56;;;;;;;4.07;1.00;;;;;;;;;;5109290;28;20058;-70
2023/08/30 14:25:23;;;;;;;4.22;0.90;;;;;;;;;;5090692;28;20063;-70
2023/08/30 14:27:51;;;;;;;2.40;0.70;;;;;;;;;;5109600;28;20050;-70
2023/08/30 14:30:18;;;;;;;5.05;0.80;;;;;;;;;;5109598;28;20040;-70
2023/08/30 14:32:45;;;;;;;3.28;0.88;;;;;;;;;;5108609;28;20052;-69
2023/08/30 14:35:13;;;;;;;2.47;0.70;;;;;;;;;;5109662;28;20136;-70
2023/08/30 14:37:41;;;;;;;2.08;0.82;;;;;;;;;;5109330;28;20051;-70
2023/08/30 14:40:09;;;;;;;2.25;0.70;;;;;;;;;;5113021;28;20048;-71
2023/08/30 14:42:37;;;;;;;3.85;0.70;;;;;;;;;;5111802;28;20048;-70